Indianapolis, Indiana
Traffic Map
Current Weather Conditions
Indianapolis, Indiana
Overcast
Overcast
54°
Feels Like: 54°
Wind Chill: 54° Ceiling: 4300
Heat Index: 54° Visibility: 10mi
Dew Point: 39° Wind: 13mph
Humidity: 57% Direction: 180° (S)
Pressure: 30in Gusts: 0mph
Raw Report DataKIND 230054Z 18011KT 10SM OVC043 12/04 A3000 RMK AO2 SLP163 T01220039
Traffic Incident Summary
Active as of:
Severity:
Category:
InformationThere was an issue retrieving the traffic information for this location. Please try a different location or try again shortly.
Advertisements
Track Severe Weather on mobile